sensor_id;sensor_type;location;lat;lon;timestamp;P1;durP1;ratioP1;P2;durP2;ratioP2
5173;SDS011;2606;50.934;6.934;2022-12-07T00:03:38;24.57;;;12.90;;
5173;SDS011;2606;50.934;6.934;2022-12-07T00:06:05;23.57;;;13.67;;
5173;SDS011;2606;50.934;6.934;2022-12-07T00:08:33;21.43;;;12.40;;
5173;SDS011;2606;50.934;6.934;2022-12-07T00:11:03;23.33;;;12.17;;
5173;SDS011;2606;50.934;6.934;2022-12-07T00:13:30;25.53;;;12.93;;
5173;SDS011;2606;50.934;6.934;2022-12-07T00:16:01;24.13;;;11.27;;
5173;SDS011;2606;50.934;6.934;2022-12-07T00:18:28;16.23;;;10.50;;
5173;SDS011;2606;50.934;6.934;2022-12-07T00:20:58;19.67;;;12.50;;
5173;SDS011;2606;50.934;6.934;2022-12-07T00:23:25;22.30;;;13.00;;
5173;SDS011;2606;50.934;6.934;2022-12-07T00:25:50;26.70;;;12.67;;
5173;SDS011;2606;50.934;6.934;2022-12-07T00:28:16;20.53;;;10.70;;
5173;SDS011;2606;50.934;6.934;2022-12-07T00:30:41;22.47;;;12.77;;
5173;SDS011;2606;50.934;6.934;2022-12-07T00:33:07;21.17;;;10.50;;
5173;SDS011;2606;50.934;6.934;2022-12-07T00:35:32;17.77;;;10.20;;
5173;SDS011;2606;50.934;6.934;2022-12-07T00:37:58;21.10;;;12.20;;
5173;SDS011;2606;50.934;6.934;2022-12-07T00:40:24;31.10;;;12.77;;
5173;SDS011;2606;50.934;6.934;2022-12-07T00:42:49;21.63;;;12.97;;
5173;SDS011;2606;50.934;6.934;2022-12-07T00:45:15;23.33;;;12.90;;
5173;SDS011;2606;50.934;6.934;2022-12-07T00:47:40;25.07;;;12.43;;
5173;SDS011;2606;50.934;6.934;2022-12-07T00:50:08;23.13;;;12.00;;
5173;SDS011;2606;50.934;6.934;2022-12-07T00:52:34;20.37;;;12.37;;
5173;SDS011;2606;50.934;6.934;2022-12-07T00:54:59;23.60;;;13.07;;
5173;SDS011;2606;50.934;6.934;2022-12-07T00:57:25;21.63;;;12.13;;
5173;SDS011;2606;50.934;6.934;2022-12-07T00:59:50;24.50;;;12.80;;
5173;SDS011;2606;50.934;6.934;2022-12-07T01:02:20;23.27;;;12.00;;
5173;SDS011;2606;50.934;6.934;2022-12-07T01:04:46;28.43;;;13.30;;
5173;SDS011;2606;50.934;6.934;2022-12-07T01:07:11;20.07;;;11.47;;
5173;SDS011;2606;50.934;6.934;2022-12-07T01:09:37;26.73;;;13.30;;
5173;SDS011;2606;50.934;6.934;2022-12-07T01:12:03;30.10;;;14.07;;
5173;SDS011;2606;50.934;6.934;2022-12-07T01:14:28;22.27;;;13.07;;
5173;SDS011;2606;50.934;6.934;2022-12-07T01:16:54;20.67;;;11.90;;
5173;SDS011;2606;50.934;6.934;2022-12-07T01:19:19;17.33;;;11.60;;
5173;SDS011;2606;50.934;6.934;2022-12-07T01:21:45;20.07;;;12.37;;
5173;SDS011;2606;50.934;6.934;2022-12-07T01:24:11;22.60;;;12.40;;
5173;SDS011;2606;50.934;6.934;2022-12-07T01:26:36;20.60;;;11.93;;
5173;SDS011;2606;50.934;6.934;2022-12-07T01:29:02;26.43;;;13.90;;
5173;SDS011;2606;50.934;6.934;2022-12-07T01:31:28;24.20;;;13.53;;
5173;SDS011;2606;50.934;6.934;2022-12-07T01:33:55;20.50;;;12.80;;
5173;SDS011;2606;50.934;6.934;2022-12-07T01:36:26;25.53;;;12.63;;
5173;SDS011;2606;50.934;6.934;2022-12-07T01:38:57;26.03;;;12.70;;
5173;SDS011;2606;50.934;6.934;2022-12-07T01:41:26;22.33;;;14.13;;
5173;SDS011;2606;50.934;6.934;2022-12-07T01:46:45;28.77;;;14.30;;
5173;SDS011;2606;50.934;6.934;2022-12-07T01:49:17;26.97;;;13.00;;
5173;SDS011;2606;50.934;6.934;2022-12-07T01:51:44;27.40;;;13.37;;
5173;SDS011;2606;50.934;6.934;2022-12-07T01:54:12;23.53;;;13.63;;
5173;SDS011;2606;50.934;6.934;2022-12-07T01:56:42;30.53;;;11.93;;
5173;SDS011;2606;50.934;6.934;2022-12-07T01:59:11;22.83;;;12.90;;
5173;SDS011;2606;50.934;6.934;2022-12-07T02:01:38;22.70;;;12.40;;
5173;SDS011;2606;50.934;6.934;2022-12-07T02:04:04;20.67;;;13.43;;
5173;SDS011;2606;50.934;6.934;2022-12-07T02:06:30;33.93;;;13.23;;
5173;SDS011;2606;50.934;6.934;2022-12-07T02:08:56;22.13;;;12.80;;
5173;SDS011;2606;50.934;6.934;2022-12-07T02:11:22;24.43;;;13.07;;
5173;SDS011;2606;50.934;6.934;2022-12-07T02:13:47;26.87;;;11.60;;
5173;SDS011;2606;50.934;6.934;2022-12-07T02:21:56;26.87;;;11.90;;
5173;SDS011;2606;50.934;6.934;2022-12-07T02:24:43;20.70;;;12.90;;
5173;SDS011;2606;50.934;6.934;2022-12-07T02:30:11;20.07;;;11.87;;
5173;SDS011;2606;50.934;6.934;2022-12-07T02:32:54;24.77;;;12.57;;
5173;SDS011;2606;50.934;6.934;2022-12-07T02:35:35;23.10;;;12.23;;
5173;SDS011;2606;50.934;6.934;2022-12-07T02:38:13;24.17;;;12.73;;
5173;SDS011;2606;50.934;6.934;2022-12-07T02:41:00;25.10;;;12.90;;
5173;SDS011;2606;50.934;6.934;2022-12-07T02:43:35;22.70;;;12.33;;
5173;SDS011;2606;50.934;6.934;2022-12-07T02:46:08;16.30;;;10.30;;
5173;SDS011;2606;50.934;6.934;2022-12-07T02:48:38;23.10;;;13.03;;
5173;SDS011;2606;50.934;6.934;2022-12-07T02:51:06;29.03;;;11.80;;
5173;SDS011;2606;50.934;6.934;2022-12-07T02:53:35;27.30;;;13.50;;
5173;SDS011;2606;50.934;6.934;2022-12-07T02:56:03;24.53;;;12.93;;
5173;SDS011;2606;50.934;6.934;2022-12-07T03:07:39;24.27;;;13.80;;
5173;SDS011;2606;50.934;6.934;2022-12-07T03:10:28;23.37;;;12.63;;
5173;SDS011;2606;50.934;6.934;2022-12-07T03:15:34;23.47;;;12.70;;
5173;SDS011;2606;50.934;6.934;2022-12-07T03:18:05;27.37;;;14.43;;
5173;SDS011;2606;50.934;6.934;2022-12-07T03:20:32;29.90;;;13.53;;
5173;SDS011;2606;50.934;6.934;2022-12-07T03:23:00;25.90;;;13.77;;
5173;SDS011;2606;50.934;6.934;2022-12-07T03:25:29;23.50;;;13.60;;
5173;SDS011;2606;50.934;6.934;2022-12-07T03:27:57;23.00;;;12.27;;
5173;SDS011;2606;50.934;6.934;2022-12-07T03:30:42;22.30;;;12.80;;
5173;SDS011;2606;50.934;6.934;2022-12-07T03:33:22;26.47;;;14.00;;
5173;SDS011;2606;50.934;6.934;2022-12-07T03:38:31;25.73;;;13.70;;
5173;SDS011;2606;50.934;6.934;2022-12-07T03:43:40;29.00;;;14.00;;
5173;SDS011;2606;50.934;6.934;2022-12-07T03:46:11;26.57;;;15.17;;
5173;SDS011;2606;50.934;6.934;2022-12-07T03:48:45;25.30;;;14.40;;
5173;SDS011;2606;50.934;6.934;2022-12-07T03:51:28;26.70;;;13.07;;
5173;SDS011;2606;50.934;6.934;2022-12-07T03:54:09;24.63;;;13.20;;
5173;SDS011;2606;50.934;6.934;2022-12-07T03:56:51;22.27;;;12.73;;
5173;SDS011;2606;50.934;6.934;2022-12-07T03:59:18;24.60;;;13.47;;
5173;SDS011;2606;50.934;6.934;2022-12-07T04:01:51;25.90;;;13.37;;
5173;SDS011;2606;50.934;6.934;2022-12-07T04:04:19;27.40;;;13.67;;
5173;SDS011;2606;50.934;6.934;2022-12-07T04:06:45;27.57;;;12.73;;
5173;SDS011;2606;50.934;6.934;2022-12-07T04:09:10;27.53;;;14.17;;
5173;SDS011;2606;50.934;6.934;2022-12-07T04:11:36;27.40;;;13.37;;
5173;SDS011;2606;50.934;6.934;2022-12-07T04:14:02;29.67;;;13.87;;
5173;SDS011;2606;50.934;6.934;2022-12-07T04:16:46;27.53;;;13.80;;
5173;SDS011;2606;50.934;6.934;2022-12-07T04:19:17;25.70;;;13.83;;
5173;SDS011;2606;50.934;6.934;2022-12-07T04:21:44;25.47;;;12.97;;
5173;SDS011;2606;50.934;6.934;2022-12-07T04:24:11;24.23;;;13.67;;
5173;SDS011;2606;50.934;6.934;2022-12-07T04:26:38;24.27;;;13.07;;
5173;SDS011;2606;50.934;6.934;2022-12-07T04:29:03;22.47;;;13.00;;
5173;SDS011;2606;50.934;6.934;2022-12-07T04:31:29;23.17;;;13.47;;
5173;SDS011;2606;50.934;6.934;2022-12-07T04:33:54;24.13;;;13.27;;
5173;SDS011;2606;50.934;6.934;2022-12-07T04:36:20;26.50;;;13.77;;
5173;SDS011;2606;50.934;6.934;2022-12-07T04:39:11;21.43;;;12.60;;
5173;SDS011;2606;50.934;6.934;2022-12-07T04:42:11;22.50;;;12.80;;
5173;SDS011;2606;50.934;6.934;2022-12-07T04:44:37;23.20;;;13.03;;
5173;SDS011;2606;50.934;6.934;2022-12-07T04:47:04;25.40;;;14.07;;
5173;SDS011;2606;50.934;6.934;2022-12-07T04:49:29;24.40;;;12.50;;
5173;SDS011;2606;50.934;6.934;2022-12-07T04:51:55;20.93;;;13.03;;
5173;SDS011;2606;50.934;6.934;2022-12-07T04:54:21;25.70;;;13.30;;
5173;SDS011;2606;50.934;6.934;2022-12-07T04:56:46;29.10;;;13.30;;
5173;SDS011;2606;50.934;6.934;2022-12-07T04:59:12;29.70;;;15.23;;
5173;SDS011;2606;50.934;6.934;2022-12-07T05:01:39;22.47;;;13.27;;
5173;SDS011;2606;50.934;6.934;2022-12-07T05:04:05;29.70;;;14.43;;
5173;SDS011;2606;50.934;6.934;2022-12-07T05:06:31;23.20;;;12.77;;
5173;SDS011;2606;50.934;6.934;2022-12-07T05:08:56;19.90;;;11.47;;
5173;SDS011;2606;50.934;6.934;2022-12-07T05:11:22;28.33;;;13.77;;
5173;SDS011;2606;50.934;6.934;2022-12-07T05:16:36;25.53;;;13.40;;
5173;SDS011;2606;50.934;6.934;2022-12-07T05:19:02;30.97;;;15.07;;
5173;SDS011;2606;50.934;6.934;2022-12-07T05:21:28;24.23;;;13.50;;
5173;SDS011;2606;50.934;6.934;2022-12-07T05:23:54;19.23;;;11.97;;
5173;SDS011;2606;50.934;6.934;2022-12-07T05:26:20;24.73;;;12.90;;
5173;SDS011;2606;50.934;6.934;2022-12-07T05:28:49;23.43;;;13.57;;
5173;SDS011;2606;50.934;6.934;2022-12-07T05:31:16;24.23;;;13.90;;
5173;SDS011;2606;50.934;6.934;2022-12-07T05:33:41;22.63;;;12.33;;
5173;SDS011;2606;50.934;6.934;2022-12-07T05:36:07;24.20;;;14.07;;
5173;SDS011;2606;50.934;6.934;2022-12-07T05:38:32;23.90;;;12.67;;
5173;SDS011;2606;50.934;6.934;2022-12-07T05:41:01;23.17;;;12.60;;
5173;SDS011;2606;50.934;6.934;2022-12-07T05:43:28;24.03;;;14.20;;
5173;SDS011;2606;50.934;6.934;2022-12-07T05:45:54;28.20;;;13.97;;
5173;SDS011;2606;50.934;6.934;2022-12-07T05:48:20;28.40;;;13.50;;
5173;SDS011;2606;50.934;6.934;2022-12-07T05:50:47;22.50;;;13.90;;
5173;SDS011;2606;50.934;6.934;2022-12-07T05:53:13;23.50;;;13.67;;
5173;SDS011;2606;50.934;6.934;2022-12-07T05:55:39;22.73;;;14.00;;
5173;SDS011;2606;50.934;6.934;2022-12-07T05:58:04;24.63;;;13.30;;
5173;SDS011;2606;50.934;6.934;2022-12-07T06:00:48;20.50;;;11.50;;
5173;SDS011;2606;50.934;6.934;2022-12-07T06:03:14;26.40;;;13.97;;
5173;SDS011;2606;50.934;6.934;2022-12-07T06:05:40;26.63;;;13.57;;
5173;SDS011;2606;50.934;6.934;2022-12-07T06:08:06;28.53;;;12.20;;
5173;SDS011;2606;50.934;6.934;2022-12-07T06:10:32;30.60;;;13.77;;
5173;SDS011;2606;50.934;6.934;2022-12-07T06:12:57;25.60;;;13.93;;
5173;SDS011;2606;50.934;6.934;2022-12-07T06:15:23;36.63;;;14.10;;
5173;SDS011;2606;50.934;6.934;2022-12-07T06:17:48;26.20;;;13.87;;
5173;SDS011;2606;50.934;6.934;2022-12-07T06:20:14;27.60;;;14.03;;
5173;SDS011;2606;50.934;6.934;2022-12-07T06:22:40;33.07;;;14.10;;
5173;SDS011;2606;50.934;6.934;2022-12-07T06:25:05;28.50;;;14.80;;
5173;SDS011;2606;50.934;6.934;2022-12-07T06:27:32;24.07;;;14.27;;
5173;SDS011;2606;50.934;6.934;2022-12-07T06:29:58;23.03;;;14.33;;
5173;SDS011;2606;50.934;6.934;2022-12-07T06:32:23;52.00;;;17.90;;
5173;SDS011;2606;50.934;6.934;2022-12-07T06:34:49;42.87;;;16.80;;
5173;SDS011;2606;50.934;6.934;2022-12-07T06:37:15;25.93;;;14.87;;
5173;SDS011;2606;50.934;6.934;2022-12-07T06:39:41;31.20;;;15.27;;
5173;SDS011;2606;50.934;6.934;2022-12-07T06:42:07;25.77;;;16.70;;
5173;SDS011;2606;50.934;6.934;2022-12-07T06:44:33;32.93;;;15.80;;
5173;SDS011;2606;50.934;6.934;2022-12-07T06:46:58;25.03;;;15.13;;
5173;SDS011;2606;50.934;6.934;2022-12-07T06:49:24;27.10;;;13.83;;
5173;SDS011;2606;50.934;6.934;2022-12-07T06:51:49;29.80;;;15.40;;
5173;SDS011;2606;50.934;6.934;2022-12-07T06:54:15;26.10;;;14.83;;
5173;SDS011;2606;50.934;6.934;2022-12-07T06:56:41;29.87;;;15.87;;
5173;SDS011;2606;50.934;6.934;2022-12-07T06:59:07;30.67;;;15.80;;
5173;SDS011;2606;50.934;6.934;2022-12-07T07:01:33;31.20;;;15.60;;
5173;SDS011;2606;50.934;6.934;2022-12-07T07:03:59;27.97;;;15.37;;
5173;SDS011;2606;50.934;6.934;2022-12-07T07:06:25;23.20;;;12.60;;
5173;SDS011;2606;50.934;6.934;2022-12-07T07:08:51;29.10;;;13.83;;
5173;SDS011;2606;50.934;6.934;2022-12-07T07:11:17;28.10;;;15.27;;
5173;SDS011;2606;50.934;6.934;2022-12-07T07:13:44;24.57;;;14.70;;
5173;SDS011;2606;50.934;6.934;2022-12-07T07:16:10;22.37;;;13.30;;
5173;SDS011;2606;50.934;6.934;2022-12-07T07:18:35;23.37;;;13.03;;
5173;SDS011;2606;50.934;6.934;2022-12-07T07:21:01;36.20;;;15.40;;
5173;SDS011;2606;50.934;6.934;2022-12-07T07:23:27;25.60;;;13.17;;
5173;SDS011;2606;50.934;6.934;2022-12-07T07:25:53;23.00;;;13.90;;
5173;SDS011;2606;50.934;6.934;2022-12-07T07:28:19;22.27;;;13.93;;
5173;SDS011;2606;50.934;6.934;2022-12-07T07:30:44;21.83;;;13.67;;
5173;SDS011;2606;50.934;6.934;2022-12-07T07:33:10;29.10;;;14.07;;
5173;SDS011;2606;50.934;6.934;2022-12-07T07:35:36;26.73;;;14.77;;
5173;SDS011;2606;50.934;6.934;2022-12-07T07:38:03;23.70;;;13.83;;
5173;SDS011;2606;50.934;6.934;2022-12-07T07:40:29;24.67;;;13.00;;
5173;SDS011;2606;50.934;6.934;2022-12-07T07:42:55;20.73;;;12.40;;
5173;SDS011;2606;50.934;6.934;2022-12-07T07:45:21;28.60;;;13.63;;
5173;SDS011;2606;50.934;6.934;2022-12-07T07:47:49;29.47;;;14.47;;
5173;SDS011;2606;50.934;6.934;2022-12-07T07:50:14;24.30;;;13.70;;
5173;SDS011;2606;50.934;6.934;2022-12-07T07:52:41;27.37;;;14.70;;
5173;SDS011;2606;50.934;6.934;2022-12-07T07:55:07;29.13;;;14.13;;
5173;SDS011;2606;50.934;6.934;2022-12-07T07:57:39;23.70;;;13.30;;
5173;SDS011;2606;50.934;6.934;2022-12-07T08:00:12;32.37;;;14.87;;
5173;SDS011;2606;50.934;6.934;2022-12-07T08:02:39;27.80;;;14.80;;
5173;SDS011;2606;50.934;6.934;2022-12-07T08:05:05;26.77;;;15.17;;
5173;SDS011;2606;50.934;6.934;2022-12-07T08:07:31;24.47;;;13.63;;
5173;SDS011;2606;50.934;6.934;2022-12-07T08:09:57;26.53;;;14.13;;
5173;SDS011;2606;50.934;6.934;2022-12-07T08:12:22;27.87;;;13.80;;
5173;SDS011;2606;50.934;6.934;2022-12-07T08:14:48;22.00;;;13.87;;
5173;SDS011;2606;50.934;6.934;2022-12-07T08:17:14;28.47;;;16.50;;
5173;SDS011;2606;50.934;6.934;2022-12-07T08:19:39;30.50;;;13.67;;
5173;SDS011;2606;50.934;6.934;2022-12-07T08:22:05;27.10;;;13.13;;
5173;SDS011;2606;50.934;6.934;2022-12-07T08:24:33;25.83;;;13.30;;
5173;SDS011;2606;50.934;6.934;2022-12-07T08:26:59;23.30;;;13.37;;
5173;SDS011;2606;50.934;6.934;2022-12-07T08:29:24;29.33;;;13.17;;
5173;SDS011;2606;50.934;6.934;2022-12-07T08:31:50;20.90;;;13.30;;
5173;SDS011;2606;50.934;6.934;2022-12-07T08:34:16;24.50;;;13.53;;
5173;SDS011;2606;50.934;6.934;2022-12-07T08:36:41;23.93;;;12.10;;
5173;SDS011;2606;50.934;6.934;2022-12-07T08:39:07;29.00;;;13.40;;
5173;SDS011;2606;50.934;6.934;2022-12-07T08:41:33;25.00;;;12.70;;
5173;SDS011;2606;50.934;6.934;2022-12-07T08:43:58;24.03;;;11.80;;
5173;SDS011;2606;50.934;6.934;2022-12-07T08:46:25;24.87;;;11.80;;
5173;SDS011;2606;50.934;6.934;2022-12-07T08:49:01;21.93;;;11.50;;
5173;SDS011;2606;50.934;6.934;2022-12-07T08:51:29;22.20;;;11.70;;
5173;SDS011;2606;50.934;6.934;2022-12-07T08:53:55;20.23;;;11.57;;
5173;SDS011;2606;50.934;6.934;2022-12-07T08:56:23;19.77;;;11.30;;
5173;SDS011;2606;50.934;6.934;2022-12-07T08:58:49;17.53;;;10.97;;
5173;SDS011;2606;50.934;6.934;2022-12-07T09:01:15;21.83;;;10.13;;
5173;SDS011;2606;50.934;6.934;2022-12-07T09:03:41;20.07;;;11.13;;
5173;SDS011;2606;50.934;6.934;2022-12-07T09:06:07;17.77;;;10.30;;
5173;SDS011;2606;50.934;6.934;2022-12-07T09:08:34;26.80;;;10.73;;
5173;SDS011;2606;50.934;6.934;2022-12-07T09:11:03;24.60;;;11.37;;
5173;SDS011;2606;50.934;6.934;2022-12-07T09:13:29;19.57;;;9.83;;
5173;SDS011;2606;50.934;6.934;2022-12-07T09:15:55;16.67;;;9.60;;
5173;SDS011;2606;50.934;6.934;2022-12-07T09:18:20;16.47;;;9.70;;
5173;SDS011;2606;50.934;6.934;2022-12-07T09:20:46;23.10;;;10.00;;
5173;SDS011;2606;50.934;6.934;2022-12-07T09:23:12;13.93;;;9.00;;
5173;SDS011;2606;50.934;6.934;2022-12-07T09:25:37;15.10;;;8.97;;
5173;SDS011;2606;50.934;6.934;2022-12-07T09:28:03;19.10;;;9.27;;
5173;SDS011;2606;50.934;6.934;2022-12-07T09:30:29;21.63;;;9.07;;
5173;SDS011;2606;50.934;6.934;2022-12-07T09:32:55;14.97;;;8.47;;
5173;SDS011;2606;50.934;6.934;2022-12-07T09:35:22;20.27;;;8.73;;
5173;SDS011;2606;50.934;6.934;2022-12-07T09:37:48;12.37;;;7.80;;
5173;SDS011;2606;50.934;6.934;2022-12-07T09:40:14;16.90;;;9.27;;
5173;SDS011;2606;50.934;6.934;2022-12-07T09:42:43;15.20;;;8.90;;
5173;SDS011;2606;50.934;6.934;2022-12-07T09:45:13;12.97;;;7.83;;
5173;SDS011;2606;50.934;6.934;2022-12-07T09:47:43;17.30;;;8.63;;
5173;SDS011;2606;50.934;6.934;2022-12-07T09:50:16;18.13;;;8.73;;
5173;SDS011;2606;50.934;6.934;2022-12-07T09:52:45;26.03;;;8.10;;
5173;SDS011;2606;50.934;6.934;2022-12-07T09:55:13;17.40;;;8.50;;
5173;SDS011;2606;50.934;6.934;2022-12-07T09:57:50;12.93;;;7.07;;
5173;SDS011;2606;50.934;6.934;2022-12-07T10:00:18;14.63;;;7.70;;
5173;SDS011;2606;50.934;6.934;2022-12-07T10:05:16;12.60;;;7.57;;
5173;SDS011;2606;50.934;6.934;2022-12-07T10:07:45;19.10;;;7.87;;
5173;SDS011;2606;50.934;6.934;2022-12-07T10:10:24;16.80;;;7.57;;
5173;SDS011;2606;50.934;6.934;2022-12-07T10:12:53;19.07;;;8.50;;
5173;SDS011;2606;50.934;6.934;2022-12-07T10:15:19;15.53;;;6.47;;
5173;SDS011;2606;50.934;6.934;2022-12-07T10:17:48;11.33;;;6.30;;
5173;SDS011;2606;50.934;6.934;2022-12-07T10:20:20;13.53;;;6.70;;
5173;SDS011;2606;50.934;6.934;2022-12-07T10:25:22;15.27;;;7.40;;
5173;SDS011;2606;50.934;6.934;2022-12-07T10:28:00;9.00;;;5.40;;
5173;SDS011;2606;50.934;6.934;2022-12-07T10:30:33;17.87;;;7.37;;
5173;SDS011;2606;50.934;6.934;2022-12-07T10:33:37;11.90;;;7.10;;
5173;SDS011;2606;50.934;6.934;2022-12-07T10:38:50;15.00;;;6.17;;
5173;SDS011;2606;50.934;6.934;2022-12-07T10:41:18;16.20;;;6.10;;
5173;SDS011;2606;50.934;6.934;2022-12-07T10:43:48;9.50;;;5.70;;
5173;SDS011;2606;50.934;6.934;2022-12-07T10:46:23;14.30;;;7.17;;
5173;SDS011;2606;50.934;6.934;2022-12-07T10:51:53;21.03;;;6.70;;
5173;SDS011;2606;50.934;6.934;2022-12-07T10:54:57;11.80;;;5.70;;
5173;SDS011;2606;50.934;6.934;2022-12-07T10:57:27;11.60;;;6.10;;
5173;SDS011;2606;50.934;6.934;2022-12-07T11:00:18;18.17;;;6.73;;
5173;SDS011;2606;50.934;6.934;2022-12-07T11:06:02;13.60;;;5.90;;
5173;SDS011;2606;50.934;6.934;2022-12-07T11:08:42;15.43;;;7.37;;
5173;SDS011;2606;50.934;6.934;2022-12-07T11:11:36;9.17;;;4.90;;
5173;SDS011;2606;50.934;6.934;2022-12-07T11:14:19;15.80;;;5.77;;
5173;SDS011;2606;50.934;6.934;2022-12-07T11:17:13;14.53;;;7.03;;
5173;SDS011;2606;50.934;6.934;2022-12-07T11:25:54;14.87;;;6.10;;
5173;SDS011;2606;50.934;6.934;2022-12-07T11:29:03;12.37;;;5.40;;
5173;SDS011;2606;50.934;6.934;2022-12-07T11:31:50;14.70;;;5.10;;
5173;SDS011;2606;50.934;6.934;2022-12-07T11:37:05;9.57;;;5.47;;
5173;SDS011;2606;50.934;6.934;2022-12-07T11:39:54;11.73;;;5.73;;
5173;SDS011;2606;50.934;6.934;2022-12-07T11:42:25;10.80;;;5.00;;
5173;SDS011;2606;50.934;6.934;2022-12-07T11:47:36;9.10;;;4.30;;
5173;SDS011;2606;50.934;6.934;2022-12-07T11:53:03;10.77;;;5.03;;
5173;SDS011;2606;50.934;6.934;2022-12-07T11:58:49;16.50;;;5.80;;
5173;SDS011;2606;50.934;6.934;2022-12-07T12:01:31;12.53;;;4.43;;
5173;SDS011;2606;50.934;6.934;2022-12-07T12:06:57;11.07;;;4.57;;
5173;SDS011;2606;50.934;6.934;2022-12-07T12:09:26;13.73;;;4.83;;
5173;SDS011;2606;50.934;6.934;2022-12-07T12:17:33;13.93;;;6.33;;
5173;SDS011;2606;50.934;6.934;2022-12-07T12:22:59;9.57;;;5.67;;
5173;SDS011;2606;50.934;6.934;2022-12-07T12:25:59;12.53;;;6.60;;
5173;SDS011;2606;50.934;6.934;2022-12-07T12:33:53;16.03;;;6.87;;
5173;SDS011;2606;50.934;6.934;2022-12-07T12:36:28;16.30;;;8.23;;
5173;SDS011;2606;50.934;6.934;2022-12-07T12:39:18;17.00;;;7.67;;
5173;SDS011;2606;50.934;6.934;2022-12-07T12:46:47;12.77;;;5.87;;
5173;SDS011;2606;50.934;6.934;2022-12-07T12:51:50;14.37;;;6.53;;
5173;SDS011;2606;50.934;6.934;2022-12-07T12:59:31;12.00;;;5.80;;
5173;SDS011;2606;50.934;6.934;2022-12-07T13:04:56;17.37;;;5.90;;
5173;SDS011;2606;50.934;6.934;2022-12-07T13:15:40;12.03;;;5.17;;
5173;SDS011;2606;50.934;6.934;2022-12-07T13:23:19;15.43;;;6.83;;
5173;SDS011;2606;50.934;6.934;2022-12-07T13:25:51;10.33;;;5.07;;
5173;SDS011;2606;50.934;6.934;2022-12-07T13:28:21;15.33;;;6.07;;
5173;SDS011;2606;50.934;6.934;2022-12-07T13:31:11;24.20;;;7.20;;
5173;SDS011;2606;50.934;6.934;2022-12-07T13:33:45;17.97;;;7.30;;
5173;SDS011;2606;50.934;6.934;2022-12-07T13:36:14;12.67;;;5.60;;
5173;SDS011;2606;50.934;6.934;2022-12-07T13:38:51;14.83;;;6.73;;
5173;SDS011;2606;50.934;6.934;2022-12-07T13:41:20;14.53;;;5.60;;
5173;SDS011;2606;50.934;6.934;2022-12-07T13:43:54;14.73;;;6.70;;
5173;SDS011;2606;50.934;6.934;2022-12-07T13:46:44;15.70;;;6.43;;
5173;SDS011;2606;50.934;6.934;2022-12-07T13:49:31;11.13;;;5.70;;
5173;SDS011;2606;50.934;6.934;2022-12-07T13:52:21;10.93;;;6.10;;
5173;SDS011;2606;50.934;6.934;2022-12-07T13:54:48;14.13;;;6.03;;
5173;SDS011;2606;50.934;6.934;2022-12-07T13:57:20;15.07;;;5.20;;
5173;SDS011;2606;50.934;6.934;2022-12-07T13:59:47;10.73;;;5.30;;
5173;SDS011;2606;50.934;6.934;2022-12-07T14:07:36;11.50;;;5.20;;
5173;SDS011;2606;50.934;6.934;2022-12-07T14:10:22;12.10;;;5.10;;
5173;SDS011;2606;50.934;6.934;2022-12-07T14:12:53;12.17;;;5.10;;
5173;SDS011;2606;50.934;6.934;2022-12-07T14:15:20;12.37;;;5.43;;
5173;SDS011;2606;50.934;6.934;2022-12-07T14:17:51;9.53;;;5.03;;
5173;SDS011;2606;50.934;6.934;2022-12-07T14:23:26;11.40;;;5.23;;
5173;SDS011;2606;50.934;6.934;2022-12-07T14:25:52;8.93;;;5.47;;
5173;SDS011;2606;50.934;6.934;2022-12-07T14:28:26;12.93;;;6.10;;
5173;SDS011;2606;50.934;6.934;2022-12-07T14:31:00;14.57;;;6.03;;
5173;SDS011;2606;50.934;6.934;2022-12-07T14:33:27;12.50;;;7.20;;
5173;SDS011;2606;50.934;6.934;2022-12-07T14:35:54;11.50;;;5.60;;
5173;SDS011;2606;50.934;6.934;2022-12-07T14:38:23;15.93;;;7.18;;
5173;SDS011;2606;50.934;6.934;2022-12-07T14:40:50;17.43;;;7.37;;
5173;SDS011;2606;50.934;6.934;2022-12-07T14:43:17;16.17;;;6.40;;
5173;SDS011;2606;50.934;6.934;2022-12-07T14:45:44;9.63;;;5.87;;
5173;SDS011;2606;50.934;6.934;2022-12-07T14:48:11;11.63;;;6.20;;
5173;SDS011;2606;50.934;6.934;2022-12-07T14:50:41;7.10;;;5.70;;
5173;SDS011;2606;50.934;6.934;2022-12-07T14:53:14;11.60;;;5.47;;
5173;SDS011;2606;50.934;6.934;2022-12-07T14:55:44;11.60;;;7.17;;
5173;SDS011;2606;50.934;6.934;2022-12-07T14:58:12;12.30;;;6.87;;
5173;SDS011;2606;50.934;6.934;2022-12-07T15:00:39;14.47;;;6.27;;
5173;SDS011;2606;50.934;6.934;2022-12-07T15:03:05;11.10;;;6.20;;
5173;SDS011;2606;50.934;6.934;2022-12-07T15:05:30;11.20;;;7.03;;
5173;SDS011;2606;50.934;6.934;2022-12-07T15:07:56;16.07;;;6.70;;
5173;SDS011;2606;50.934;6.934;2022-12-07T15:10:23;11.80;;;6.37;;
5173;SDS011;2606;50.934;6.934;2022-12-07T15:12:57;12.53;;;6.67;;
5173;SDS011;2606;50.934;6.934;2022-12-07T15:15:46;11.00;;;6.80;;
5173;SDS011;2606;50.934;6.934;2022-12-07T15:18:13;15.17;;;6.97;;
5173;SDS011;2606;50.934;6.934;2022-12-07T15:20:38;19.23;;;5.80;;
5173;SDS011;2606;50.934;6.934;2022-12-07T15:23:04;13.87;;;5.93;;
5173;SDS011;2606;50.934;6.934;2022-12-07T15:25:33;10.60;;;6.23;;
5173;SDS011;2606;50.934;6.934;2022-12-07T15:27:58;9.80;;;5.83;;
5173;SDS011;2606;50.934;6.934;2022-12-07T15:30:24;11.20;;;5.70;;
5173;SDS011;2606;50.934;6.934;2022-12-07T15:32:50;10.07;;;5.90;;
5173;SDS011;2606;50.934;6.934;2022-12-07T15:35:16;12.03;;;5.47;;
5173;SDS011;2606;50.934;6.934;2022-12-07T15:37:42;11.93;;;5.43;;
5173;SDS011;2606;50.934;6.934;2022-12-07T15:40:07;7.73;;;5.90;;
5173;SDS011;2606;50.934;6.934;2022-12-07T15:42:38;8.60;;;4.30;;
5173;SDS011;2606;50.934;6.934;2022-12-07T15:45:05;9.40;;;4.27;;
5173;SDS011;2606;50.934;6.934;2022-12-07T15:47:42;10.47;;;4.50;;
5173;SDS011;2606;50.934;6.934;2022-12-07T15:50:13;6.50;;;4.03;;
5173;SDS011;2606;50.934;6.934;2022-12-07T15:52:51;8.00;;;4.87;;
5173;SDS011;2606;50.934;6.934;2022-12-07T15:55:50;9.87;;;4.50;;
5173;SDS011;2606;50.934;6.934;2022-12-07T15:58:30;13.33;;;4.60;;
5173;SDS011;2606;50.934;6.934;2022-12-07T16:01:09;15.70;;;6.40;;
5173;SDS011;2606;50.934;6.934;2022-12-07T16:03:38;14.10;;;6.93;;
5173;SDS011;2606;50.934;6.934;2022-12-07T16:06:17;13.03;;;7.77;;
5173;SDS011;2606;50.934;6.934;2022-12-07T16:08:43;11.70;;;4.67;;
5173;SDS011;2606;50.934;6.934;2022-12-07T16:11:10;10.60;;;5.70;;
5173;SDS011;2606;50.934;6.934;2022-12-07T16:13:35;13.53;;;5.13;;
5173;SDS011;2606;50.934;6.934;2022-12-07T16:16:02;7.13;;;4.87;;
5173;SDS011;2606;50.934;6.934;2022-12-07T16:18:29;14.40;;;4.80;;
5173;SDS011;2606;50.934;6.934;2022-12-07T16:20:55;10.03;;;5.30;;
5173;SDS011;2606;50.934;6.934;2022-12-07T16:23:21;8.17;;;4.10;;
5173;SDS011;2606;50.934;6.934;2022-12-07T16:25:46;7.97;;;4.77;;
5173;SDS011;2606;50.934;6.934;2022-12-07T16:28:12;6.10;;;4.23;;
5173;SDS011;2606;50.934;6.934;2022-12-07T16:30:37;13.50;;;8.10;;
5173;SDS011;2606;50.934;6.934;2022-12-07T16:33:03;7.00;;;4.67;;
5173;SDS011;2606;50.934;6.934;2022-12-07T16:35:31;8.03;;;3.57;;
5173;SDS011;2606;50.934;6.934;2022-12-07T16:38:00;4.30;;;2.93;;
5173;SDS011;2606;50.934;6.934;2022-12-07T16:40:25;8.73;;;3.40;;
5173;SDS011;2606;50.934;6.934;2022-12-07T16:42:51;5.93;;;2.40;;
5173;SDS011;2606;50.934;6.934;2022-12-07T16:45:17;6.10;;;3.27;;
5173;SDS011;2606;50.934;6.934;2022-12-07T16:47:42;8.43;;;4.33;;
5173;SDS011;2606;50.934;6.934;2022-12-07T16:50:11;7.67;;;3.13;;
5173;SDS011;2606;50.934;6.934;2022-12-07T16:52:37;17.63;;;8.63;;
5173;SDS011;2606;50.934;6.934;2022-12-07T16:55:02;6.20;;;3.63;;
5173;SDS011;2606;50.934;6.934;2022-12-07T16:57:29;9.70;;;4.10;;
5173;SDS011;2606;50.934;6.934;2022-12-07T16:59:56;6.63;;;3.63;;
5173;SDS011;2606;50.934;6.934;2022-12-07T17:02:22;5.10;;;3.50;;
5173;SDS011;2606;50.934;6.934;2022-12-07T17:04:47;4.50;;;3.13;;
5173;SDS011;2606;50.934;6.934;2022-12-07T17:07:13;4.03;;;3.37;;
5173;SDS011;2606;50.934;6.934;2022-12-07T17:09:38;4.40;;;3.37;;